sensor_id;sensor_type;location;lat;lon;timestamp;P1;durP1;ratioP1;P2;durP2;ratioP2
68319;SDS011;55168;51.120;17.024;2023-03-01T00:00:00;64.4;;;40.1;;
68319;SDS011;55168;51.120;17.024;2023-03-01T00:01:02;67.1;;;40.6;;
68319;SDS011;55168;51.120;17.024;2023-03-01T00:02:00;67.1;;;40.6;;
68319;SDS011;55168;51.120;17.024;2023-03-01T00:03:00;67.1;;;40.6;;
68319;SDS011;55168;51.120;17.024;2023-03-01T00:04:00;67.1;;;40.6;;
68319;SDS011;55168;51.120;17.024;2023-03-01T00:05:00;67.1;;;40.6;;
68319;SDS011;55168;51.120;17.024;2023-03-01T00:06:01;63.6;;;40.3;;
68319;SDS011;55168;51.120;17.024;2023-03-01T00:07:00;63.6;;;40.3;;
68319;SDS011;55168;51.120;17.024;2023-03-01T00:08:00;63.6;;;40.3;;
68319;SDS011;55168;51.120;17.024;2023-03-01T00:09:00;63.6;;;40.3;;
68319;SDS011;55168;51.120;17.024;2023-03-01T00:10:00;63.6;;;40.3;;
68319;SDS011;55168;51.120;17.024;2023-03-01T00:11:06;62.5;;;40.3;;
68319;SDS011;55168;51.120;17.024;2023-03-01T00:12:00;62.5;;;40.3;;
68319;SDS011;55168;51.120;17.024;2023-03-01T00:13:00;62.5;;;40.3;;
68319;SDS011;55168;51.120;17.024;2023-03-01T00:14:01;62.5;;;40.3;;
68319;SDS011;55168;51.120;17.024;2023-03-01T00:15:00;62.5;;;40.3;;
68319;SDS011;55168;51.120;17.024;2023-03-01T00:16:03;68.2;;;41.4;;
68319;SDS011;55168;51.120;17.024;2023-03-01T00:17:00;68.2;;;41.4;;
68319;SDS011;55168;51.120;17.024;2023-03-01T00:18:00;68.2;;;41.4;;
68319;SDS011;55168;51.120;17.024;2023-03-01T00:19:00;68.2;;;41.4;;
68319;SDS011;55168;51.120;17.024;2023-03-01T00:20:00;68.2;;;41.4;;
68319;SDS011;55168;51.120;17.024;2023-03-01T00:21:00;62.9;;;41.3;;
68319;SDS011;55168;51.120;17.024;2023-03-01T00:22:00;62.9;;;41.3;;
68319;SDS011;55168;51.120;17.024;2023-03-01T00:23:00;62.9;;;41.3;;
68319;SDS011;55168;51.120;17.024;2023-03-01T00:24:01;62.9;;;41.3;;
68319;SDS011;55168;51.120;17.024;2023-03-01T00:25:00;62.9;;;41.3;;
68319;SDS011;55168;51.120;17.024;2023-03-01T00:26:00;65.7;;;42.0;;
68319;SDS011;55168;51.120;17.024;2023-03-01T00:27:00;65.7;;;42.0;;
68319;SDS011;55168;51.120;17.024;2023-03-01T00:28:00;65.7;;;42.0;;
68319;SDS011;55168;51.120;17.024;2023-03-01T00:29:00;65.7;;;42.0;;
68319;SDS011;55168;51.120;17.024;2023-03-01T00:30:00;65.9;;;41.3;;
68319;SDS011;55168;51.120;17.024;2023-03-01T00:31:13;65.9;;;41.3;;
68319;SDS011;55168;51.120;17.024;2023-03-01T00:32:00;65.9;;;41.3;;
68319;SDS011;55168;51.120;17.024;2023-03-01T00:33:00;65.9;;;41.3;;
68319;SDS011;55168;51.120;17.024;2023-03-01T00:34:04;65.9;;;41.3;;
68319;SDS011;55168;51.120;17.024;2023-03-01T00:35:00;67.1;;;42.7;;
68319;SDS011;55168;51.120;17.024;2023-03-01T00:36:01;67.1;;;42.7;;
68319;SDS011;55168;51.120;17.024;2023-03-01T00:37:00;67.1;;;42.7;;
68319;SDS011;55168;51.120;17.024;2023-03-01T00:38:01;67.1;;;42.7;;
68319;SDS011;55168;51.120;17.024;2023-03-01T00:39:01;67.1;;;42.7;;
68319;SDS011;55168;51.120;17.024;2023-03-01T00:40:00;76.7;;;45.3;;
68319;SDS011;55168;51.120;17.024;2023-03-01T00:41:05;76.7;;;45.3;;
68319;SDS011;55168;51.120;17.024;2023-03-01T00:42:00;76.7;;;45.3;;
68319;SDS011;55168;51.120;17.024;2023-03-01T00:43:01;76.7;;;45.3;;
68319;SDS011;55168;51.120;17.024;2023-03-01T00:44:00;76.7;;;45.3;;
68319;SDS011;55168;51.120;17.024;2023-03-01T00:45:00;69.3;;;43.7;;
68319;SDS011;55168;51.120;17.024;2023-03-01T00:46:00;69.3;;;43.7;;
68319;SDS011;55168;51.120;17.024;2023-03-01T00:47:00;69.3;;;43.7;;
68319;SDS011;55168;51.120;17.024;2023-03-01T00:48:00;69.3;;;43.7;;
68319;SDS011;55168;51.120;17.024;2023-03-01T00:49:00;69.3;;;43.7;;
68319;SDS011;55168;51.120;17.024;2023-03-01T00:50:00;84.4;;;50.7;;
68319;SDS011;55168;51.120;17.024;2023-03-01T00:51:25;84.4;;;50.7;;
68319;SDS011;55168;51.120;17.024;2023-03-01T00:52:00;84.4;;;50.7;;
68319;SDS011;55168;51.120;17.024;2023-03-01T00:53:00;84.4;;;50.7;;
68319;SDS011;55168;51.120;17.024;2023-03-01T00:54:01;84.4;;;50.7;;
68319;SDS011;55168;51.120;17.024;2023-03-01T00:55:00;77.6;;;47.1;;
68319;SDS011;55168;51.120;17.024;2023-03-01T00:56:00;77.6;;;47.1;;
68319;SDS011;55168;51.120;17.024;2023-03-01T00:57:00;77.6;;;47.1;;
68319;SDS011;55168;51.120;17.024;2023-03-01T00:58:00;77.6;;;47.1;;
68319;SDS011;55168;51.120;17.024;2023-03-01T00:59:00;77.6;;;47.1;;
68319;SDS011;55168;51.120;17.024;2023-03-01T01:00:00;62.6;;;40.5;;
68319;SDS011;55168;51.120;17.024;2023-03-01T01:01:00;62.6;;;40.5;;
68319;SDS011;55168;51.120;17.024;2023-03-01T01:02:00;62.6;;;40.5;;
68319;SDS011;55168;51.120;17.024;2023-03-01T01:03:00;62.6;;;40.5;;
68319;SDS011;55168;51.120;17.024;2023-03-01T01:04:03;62.6;;;40.5;;
68319;SDS011;55168;51.120;17.024;2023-03-01T01:05:00;65.7;;;41.3;;
68319;SDS011;55168;51.120;17.024;2023-03-01T01:06:00;65.7;;;41.3;;
68319;SDS011;55168;51.120;17.024;2023-03-01T01:07:00;65.7;;;41.3;;
68319;SDS011;55168;51.120;17.024;2023-03-01T01:08:00;65.7;;;41.3;;
68319;SDS011;55168;51.120;17.024;2023-03-01T01:09:01;65.7;;;41.3;;
68319;SDS011;55168;51.120;17.024;2023-03-01T01:10:00;66.5;;;41.0;;
68319;SDS011;55168;51.120;17.024;2023-03-01T01:11:00;66.5;;;41.0;;
68319;SDS011;55168;51.120;17.024;2023-03-01T01:12:00;66.5;;;41.0;;
68319;SDS011;55168;51.120;17.024;2023-03-01T01:13:00;66.5;;;41.0;;
68319;SDS011;55168;51.120;17.024;2023-03-01T01:14:00;66.5;;;41.0;;
68319;SDS011;55168;51.120;17.024;2023-03-01T01:15:00;120.4;;;66.5;;
68319;SDS011;55168;51.120;17.024;2023-03-01T01:16:01;120.4;;;66.5;;
68319;SDS011;55168;51.120;17.024;2023-03-01T01:17:00;120.4;;;66.5;;
68319;SDS011;55168;51.120;17.024;2023-03-01T01:18:00;120.4;;;66.5;;
68319;SDS011;55168;51.120;17.024;2023-03-01T01:19:00;120.4;;;66.5;;
68319;SDS011;55168;51.120;17.024;2023-03-01T01:20:00;73.9;;;45.8;;
68319;SDS011;55168;51.120;17.024;2023-03-01T01:21:06;73.9;;;45.8;;
68319;SDS011;55168;51.120;17.024;2023-03-01T01:22:00;73.9;;;45.8;;
68319;SDS011;55168;51.120;17.024;2023-03-01T01:23:00;73.9;;;45.8;;
68319;SDS011;55168;51.120;17.024;2023-03-01T01:24:03;73.9;;;45.8;;
68319;SDS011;55168;51.120;17.024;2023-03-01T01:25:00;73.6;;;46.7;;
68319;SDS011;55168;51.120;17.024;2023-03-01T01:26:09;73.6;;;46.7;;
68319;SDS011;55168;51.120;17.024;2023-03-01T01:27:00;73.6;;;46.7;;
68319;SDS011;55168;51.120;17.024;2023-03-01T01:28:00;73.6;;;46.7;;
68319;SDS011;55168;51.120;17.024;2023-03-01T01:29:01;73.6;;;46.7;;
68319;SDS011;55168;51.120;17.024;2023-03-01T01:30:00;75.7;;;45.6;;
68319;SDS011;55168;51.120;17.024;2023-03-01T01:31:00;75.7;;;45.6;;
68319;SDS011;55168;51.120;17.024;2023-03-01T01:32:00;75.7;;;45.6;;
68319;SDS011;55168;51.120;17.024;2023-03-01T01:33:00;75.7;;;45.6;;
68319;SDS011;55168;51.120;17.024;2023-03-01T01:34:02;75.7;;;45.6;;
68319;SDS011;55168;51.120;17.024;2023-03-01T01:35:00;72.1;;;45.9;;
68319;SDS011;55168;51.120;17.024;2023-03-01T01:36:00;72.1;;;45.9;;
68319;SDS011;55168;51.120;17.024;2023-03-01T01:37:00;72.1;;;45.9;;
68319;SDS011;55168;51.120;17.024;2023-03-01T01:38:00;72.1;;;45.9;;
68319;SDS011;55168;51.120;17.024;2023-03-01T01:39:00;72.1;;;45.9;;
68319;SDS011;55168;51.120;17.024;2023-03-01T01:40:01;73.2;;;45.0;;
68319;SDS011;55168;51.120;17.024;2023-03-01T01:41:00;73.2;;;45.0;;
68319;SDS011;55168;51.120;17.024;2023-03-01T01:42:01;73.2;;;45.0;;
68319;SDS011;55168;51.120;17.024;2023-03-01T01:43:00;73.2;;;45.0;;
68319;SDS011;55168;51.120;17.024;2023-03-01T01:45:27;79.8;;;49.0;;
68319;SDS011;55168;51.120;17.024;2023-03-01T01:46:03;79.8;;;49.0;;
68319;SDS011;55168;51.120;17.024;2023-03-01T01:48:05;79.8;;;49.0;;
68319;SDS011;55168;51.120;17.024;2023-03-01T01:49:03;79.8;;;49.0;;
68319;SDS011;55168;51.120;17.024;2023-03-01T01:50:00;76.4;;;48.6;;
68319;SDS011;55168;51.120;17.024;2023-03-01T01:51:00;76.4;;;48.6;;
68319;SDS011;55168;51.120;17.024;2023-03-01T01:52:11;76.4;;;48.6;;
68319;SDS011;55168;51.120;17.024;2023-03-01T01:53:00;76.4;;;48.6;;
68319;SDS011;55168;51.120;17.024;2023-03-01T01:54:00;76.4;;;48.6;;
68319;SDS011;55168;51.120;17.024;2023-03-01T01:55:05;75.6;;;47.7;;
68319;SDS011;55168;51.120;17.024;2023-03-01T01:56:01;75.6;;;47.7;;
68319;SDS011;55168;51.120;17.024;2023-03-01T01:57:03;75.6;;;47.7;;
68319;SDS011;55168;51.120;17.024;2023-03-01T01:58:03;75.6;;;47.7;;
68319;SDS011;55168;51.120;17.024;2023-03-01T01:59:01;75.6;;;47.7;;
68319;SDS011;55168;51.120;17.024;2023-03-01T02:00:05;85.6;;;53.2;;
68319;SDS011;55168;51.120;17.024;2023-03-01T02:01:00;85.6;;;53.2;;
68319;SDS011;55168;51.120;17.024;2023-03-01T02:02:02;85.6;;;53.2;;
68319;SDS011;55168;51.120;17.024;2023-03-01T02:03:04;85.6;;;53.2;;
68319;SDS011;55168;51.120;17.024;2023-03-01T02:04:00;85.6;;;53.2;;
68319;SDS011;55168;51.120;17.024;2023-03-01T02:05:06;81.4;;;51.5;;
68319;SDS011;55168;51.120;17.024;2023-03-01T02:06:03;81.4;;;51.5;;
68319;SDS011;55168;51.120;17.024;2023-03-01T02:07:09;81.4;;;51.5;;
68319;SDS011;55168;51.120;17.024;2023-03-01T02:08:00;81.4;;;51.5;;
68319;SDS011;55168;51.120;17.024;2023-03-01T02:09:05;81.4;;;51.5;;
68319;SDS011;55168;51.120;17.024;2023-03-01T02:10:00;81.2;;;50.8;;
68319;SDS011;55168;51.120;17.024;2023-03-01T02:11:00;81.2;;;50.8;;
68319;SDS011;55168;51.120;17.024;2023-03-01T02:12:01;81.2;;;50.8;;
68319;SDS011;55168;51.120;17.024;2023-03-01T02:13:01;81.2;;;50.8;;
68319;SDS011;55168;51.120;17.024;2023-03-01T02:14:00;81.2;;;50.8;;
68319;SDS011;55168;51.120;17.024;2023-03-01T02:15:00;83.0;;;51.5;;
68319;SDS011;55168;51.120;17.024;2023-03-01T02:16:04;83.0;;;51.5;;
68319;SDS011;55168;51.120;17.024;2023-03-01T02:17:00;83.0;;;51.5;;
68319;SDS011;55168;51.120;17.024;2023-03-01T02:18:02;83.0;;;51.5;;
68319;SDS011;55168;51.120;17.024;2023-03-01T02:19:00;83.0;;;51.5;;
68319;SDS011;55168;51.120;17.024;2023-03-01T02:22:18;82.0;;;50.3;;
68319;SDS011;55168;51.120;17.024;2023-03-01T02:23:00;82.0;;;50.3;;
68319;SDS011;55168;51.120;17.024;2023-03-01T02:24:10;82.0;;;50.3;;
68319;SDS011;55168;51.120;17.024;2023-03-01T02:25:19;87.5;;;53.0;;
68319;SDS011;55168;51.120;17.024;2023-03-01T02:26:06;87.5;;;53.0;;
68319;SDS011;55168;51.120;17.024;2023-03-01T02:27:00;87.5;;;53.0;;
68319;SDS011;55168;51.120;17.024;2023-03-01T02:28:06;87.5;;;53.0;;
68319;SDS011;55168;51.120;17.024;2023-03-01T02:29:00;87.5;;;53.0;;
68319;SDS011;55168;51.120;17.024;2023-03-01T02:30:00;88.2;;;56.1;;
68319;SDS011;55168;51.120;17.024;2023-03-01T02:31:01;88.2;;;56.1;;
68319;SDS011;55168;51.120;17.024;2023-03-01T02:32:02;88.2;;;56.1;;
68319;SDS011;55168;51.120;17.024;2023-03-01T02:33:02;88.2;;;56.1;;
68319;SDS011;55168;51.120;17.024;2023-03-01T02:34:01;88.2;;;56.1;;
68319;SDS011;55168;51.120;17.024;2023-03-01T02:35:01;89.9;;;54.8;;
68319;SDS011;55168;51.120;17.024;2023-03-01T02:36:09;89.9;;;54.8;;
68319;SDS011;55168;51.120;17.024;2023-03-01T02:37:07;89.9;;;54.8;;
68319;SDS011;55168;51.120;17.024;2023-03-01T02:38:01;89.9;;;54.8;;
68319;SDS011;55168;51.120;17.024;2023-03-01T02:39:02;89.9;;;54.8;;
68319;SDS011;55168;51.120;17.024;2023-03-01T02:40:04;86.5;;;54.7;;
68319;SDS011;55168;51.120;17.024;2023-03-01T02:41:02;86.5;;;54.7;;
68319;SDS011;55168;51.120;17.024;2023-03-01T02:42:02;86.5;;;54.7;;
68319;SDS011;55168;51.120;17.024;2023-03-01T02:43:00;86.5;;;54.7;;
68319;SDS011;55168;51.120;17.024;2023-03-01T02:44:00;86.5;;;54.7;;
68319;SDS011;55168;51.120;17.024;2023-03-01T02:45:00;93.5;;;54.4;;
68319;SDS011;55168;51.120;17.024;2023-03-01T02:46:15;93.5;;;54.4;;
68319;SDS011;55168;51.120;17.024;2023-03-01T02:47:02;93.5;;;54.4;;
68319;SDS011;55168;51.120;17.024;2023-03-01T02:48:00;93.5;;;54.4;;
68319;SDS011;55168;51.120;17.024;2023-03-01T02:49:00;93.5;;;54.4;;
68319;SDS011;55168;51.120;17.024;2023-03-01T02:50:00;92.9;;;54.8;;
68319;SDS011;55168;51.120;17.024;2023-03-01T02:51:21;92.9;;;54.8;;
68319;SDS011;55168;51.120;17.024;2023-03-01T02:54:10;92.9;;;54.8;;
68319;SDS011;55168;51.120;17.024;2023-03-01T02:55:15;95.8;;;56.7;;
68319;SDS011;55168;51.120;17.024;2023-03-01T02:56:00;95.8;;;56.7;;
68319;SDS011;55168;51.120;17.024;2023-03-01T02:57:00;95.8;;;56.7;;
68319;SDS011;55168;51.120;17.024;2023-03-01T02:58:02;95.8;;;56.7;;
68319;SDS011;55168;51.120;17.024;2023-03-01T02:59:00;95.8;;;56.7;;
68319;SDS011;55168;51.120;17.024;2023-03-01T03:00:04;74.0;;;46.3;;
68319;SDS011;55168;51.120;17.024;2023-03-01T03:01:00;74.0;;;46.3;;
68319;SDS011;55168;51.120;17.024;2023-03-01T03:02:00;74.0;;;46.3;;
68319;SDS011;55168;51.120;17.024;2023-03-01T03:03:00;74.0;;;46.3;;
68319;SDS011;55168;51.120;17.024;2023-03-01T03:04:00;74.0;;;46.3;;
68319;SDS011;55168;51.120;17.024;2023-03-01T03:05:00;77.3;;;48.4;;
68319;SDS011;55168;51.120;17.024;2023-03-01T03:06:00;77.3;;;48.4;;
68319;SDS011;55168;51.120;17.024;2023-03-01T03:07:00;77.3;;;48.4;;
68319;SDS011;55168;51.120;17.024;2023-03-01T03:08:02;77.3;;;48.4;;
68319;SDS011;55168;51.120;17.024;2023-03-01T03:09:00;77.3;;;48.4;;
68319;SDS011;55168;51.120;17.024;2023-03-01T03:10:01;70.9;;;45.6;;
68319;SDS011;55168;51.120;17.024;2023-03-01T03:11:00;70.9;;;45.6;;
68319;SDS011;55168;51.120;17.024;2023-03-01T03:12:00;70.9;;;45.6;;
68319;SDS011;55168;51.120;17.024;2023-03-01T03:13:02;70.9;;;45.6;;
68319;SDS011;55168;51.120;17.024;2023-03-01T03:14:00;70.9;;;45.6;;
68319;SDS011;55168;51.120;17.024;2023-03-01T03:15:00;74.9;;;47.1;;
68319;SDS011;55168;51.120;17.024;2023-03-01T03:16:02;74.9;;;47.1;;
68319;SDS011;55168;51.120;17.024;2023-03-01T03:17:00;74.9;;;47.1;;
68319;SDS011;55168;51.120;17.024;2023-03-01T03:18:00;74.9;;;47.1;;
68319;SDS011;55168;51.120;17.024;2023-03-01T03:19:00;74.9;;;47.1;;
68319;SDS011;55168;51.120;17.024;2023-03-01T03:20:00;71.7;;;45.1;;
68319;SDS011;55168;51.120;17.024;2023-03-01T03:21:00;71.7;;;45.1;;
68319;SDS011;55168;51.120;17.024;2023-03-01T03:22:00;71.7;;;45.1;;
68319;SDS011;55168;51.120;17.024;2023-03-01T03:23:00;71.7;;;45.1;;
68319;SDS011;55168;51.120;17.024;2023-03-01T03:24:00;71.7;;;45.1;;
68319;SDS011;55168;51.120;17.024;2023-03-01T03:25:00;70.8;;;44.0;;
68319;SDS011;55168;51.120;17.024;2023-03-01T03:26:00;70.8;;;44.0;;
68319;SDS011;55168;51.120;17.024;2023-03-01T03:27:00;70.8;;;44.0;;
68319;SDS011;55168;51.120;17.024;2023-03-01T03:28:00;70.8;;;44.0;;
68319;SDS011;55168;51.120;17.024;2023-03-01T03:29:00;70.8;;;44.0;;
68319;SDS011;55168;51.120;17.024;2023-03-01T03:30:00;71.8;;;45.1;;
68319;SDS011;55168;51.120;17.024;2023-03-01T03:31:00;71.8;;;45.1;;
68319;SDS011;55168;51.120;17.024;2023-03-01T03:32:00;71.8;;;45.1;;
68319;SDS011;55168;51.120;17.024;2023-03-01T03:33:00;71.8;;;45.1;;
68319;SDS011;55168;51.120;17.024;2023-03-01T03:34:00;71.8;;;45.1;;
68319;SDS011;55168;51.120;17.024;2023-03-01T03:35:00;73.1;;;47.5;;
68319;SDS011;55168;51.120;17.024;2023-03-01T03:36:00;73.1;;;47.5;;
68319;SDS011;55168;51.120;17.024;2023-03-01T03:37:00;73.1;;;47.5;;
68319;SDS011;55168;51.120;17.024;2023-03-01T03:38:05;73.1;;;47.5;;
68319;SDS011;55168;51.120;17.024;2023-03-01T03:39:00;73.1;;;47.5;;
68319;SDS011;55168;51.120;17.024;2023-03-01T03:40:00;78.3;;;50.4;;
68319;SDS011;55168;51.120;17.024;2023-03-01T03:41:03;78.3;;;50.4;;
68319;SDS011;55168;51.120;17.024;2023-03-01T03:42:00;78.3;;;50.4;;
68319;SDS011;55168;51.120;17.024;2023-03-01T03:43:01;78.3;;;50.4;;
68319;SDS011;55168;51.120;17.024;2023-03-01T03:44:00;78.3;;;50.4;;
68319;SDS011;55168;51.120;17.024;2023-03-01T03:45:00;81.4;;;51.3;;
68319;SDS011;55168;51.120;17.024;2023-03-01T03:46:01;81.4;;;51.3;;
68319;SDS011;55168;51.120;17.024;2023-03-01T03:47:00;81.4;;;51.3;;
68319;SDS011;55168;51.120;17.024;2023-03-01T03:48:01;81.4;;;51.3;;
68319;SDS011;55168;51.120;17.024;2023-03-01T03:49:00;81.4;;;51.3;;
68319;SDS011;55168;51.120;17.024;2023-03-01T03:50:00;80.1;;;52.1;;
68319;SDS011;55168;51.120;17.024;2023-03-01T03:51:00;80.1;;;52.1;;
68319;SDS011;55168;51.120;17.024;2023-03-01T03:52:00;80.1;;;52.1;;
68319;SDS011;55168;51.120;17.024;2023-03-01T03:53:01;80.1;;;52.1;;
68319;SDS011;55168;51.120;17.024;2023-03-01T03:54:00;80.1;;;52.1;;
68319;SDS011;55168;51.120;17.024;2023-03-01T03:55:00;79.9;;;49.5;;
68319;SDS011;55168;51.120;17.024;2023-03-01T03:56:00;79.9;;;49.5;;
68319;SDS011;55168;51.120;17.024;2023-03-01T03:57:00;79.9;;;49.5;;
68319;SDS011;55168;51.120;17.024;2023-03-01T03:58:02;79.9;;;49.5;;
68319;SDS011;55168;51.120;17.024;2023-03-01T03:59:00;79.9;;;49.5;;
68319;SDS011;55168;51.120;17.024;2023-03-01T04:00:00;79.4;;;51.3;;
68319;SDS011;55168;51.120;17.024;2023-03-01T04:01:00;79.4;;;51.3;;
68319;SDS011;55168;51.120;17.024;2023-03-01T04:02:00;79.4;;;51.3;;
68319;SDS011;55168;51.120;17.024;2023-03-01T04:03:00;79.4;;;51.3;;
68319;SDS011;55168;51.120;17.024;2023-03-01T04:04:00;79.4;;;51.3;;
68319;SDS011;55168;51.120;17.024;2023-03-01T04:05:00;81.5;;;51.2;;
68319;SDS011;55168;51.120;17.024;2023-03-01T04:06:01;81.5;;;51.2;;
68319;SDS011;55168;51.120;17.024;2023-03-01T04:07:00;81.5;;;51.2;;
68319;SDS011;55168;51.120;17.024;2023-03-01T04:08:00;81.5;;;51.2;;
68319;SDS011;55168;51.120;17.024;2023-03-01T04:09:00;81.5;;;51.2;;
68319;SDS011;55168;51.120;17.024;2023-03-01T04:10:01;78.9;;;49.0;;
68319;SDS011;55168;51.120;17.024;2023-03-01T04:11:02;78.9;;;49.0;;
68319;SDS011;55168;51.120;17.024;2023-03-01T04:12:00;78.9;;;49.0;;
68319;SDS011;55168;51.120;17.024;2023-03-01T04:13:00;78.9;;;49.0;;
68319;SDS011;55168;51.120;17.024;2023-03-01T04:14:00;78.9;;;49.0;;
68319;SDS011;55168;51.120;17.024;2023-03-01T04:15:01;80.9;;;50.6;;
68319;SDS011;55168;51.120;17.024;2023-03-01T04:16:00;80.9;;;50.6;;
68319;SDS011;55168;51.120;17.024;2023-03-01T04:17:00;80.9;;;50.6;;
68319;SDS011;55168;51.120;17.024;2023-03-01T04:18:00;80.9;;;50.6;;
68319;SDS011;55168;51.120;17.024;2023-03-01T04:19:00;80.9;;;50.6;;
68319;SDS011;55168;51.120;17.024;2023-03-01T04:20:00;77.0;;;51.2;;
68319;SDS011;55168;51.120;17.024;2023-03-01T04:21:00;77.0;;;51.2;;
68319;SDS011;55168;51.120;17.024;2023-03-01T04:22:00;77.0;;;51.2;;
68319;SDS011;55168;51.120;17.024;2023-03-01T04:23:01;77.0;;;51.2;;
68319;SDS011;55168;51.120;17.024;2023-03-01T04:24:00;77.0;;;51.2;;
68319;SDS011;55168;51.120;17.024;2023-03-01T04:25:00;80.7;;;50.8;;
68319;SDS011;55168;51.120;17.024;2023-03-01T04:26:00;80.7;;;50.8;;
68319;SDS011;55168;51.120;17.024;2023-03-01T04:27:00;80.7;;;50.8;;
68319;SDS011;55168;51.120;17.024;2023-03-01T04:28:00;80.7;;;50.8;;
68319;SDS011;55168;51.120;17.024;2023-03-01T04:29:00;80.7;;;50.8;;
68319;SDS011;55168;51.120;17.024;2023-03-01T04:30:01;77.0;;;48.8;;
68319;SDS011;55168;51.120;17.024;2023-03-01T04:31:04;77.0;;;48.8;;
68319;SDS011;55168;51.120;17.024;2023-03-01T04:32:00;77.0;;;48.8;;
68319;SDS011;55168;51.120;17.024;2023-03-01T04:33:00;77.0;;;48.8;;
68319;SDS011;55168;51.120;17.024;2023-03-01T04:34:00;77.0;;;48.8;;
68319;SDS011;55168;51.120;17.024;2023-03-01T04:35:00;79.8;;;51.1;;
68319;SDS011;55168;51.120;17.024;2023-03-01T04:36:00;79.8;;;51.1;;
68319;SDS011;55168;51.120;17.024;2023-03-01T04:37:00;79.8;;;51.1;;
68319;SDS011;55168;51.120;17.024;2023-03-01T04:38:00;79.8;;;51.1;;
68319;SDS011;55168;51.120;17.024;2023-03-01T04:39:00;79.8;;;51.1;;
68319;SDS011;55168;51.120;17.024;2023-03-01T04:40:01;78.9;;;49.3;;
68319;SDS011;55168;51.120;17.024;2023-03-01T04:41:00;78.9;;;49.3;;
68319;SDS011;55168;51.120;17.024;2023-03-01T04:42:00;78.9;;;49.3;;
68319;SDS011;55168;51.120;17.024;2023-03-01T04:43:01;78.9;;;49.3;;
68319;SDS011;55168;51.120;17.024;2023-03-01T04:44:00;78.5;;;50.0;;
68319;SDS011;55168;51.120;17.024;2023-03-01T04:45:00;78.5;;;50.0;;
68319;SDS011;55168;51.120;17.024;2023-03-01T04:46:02;78.5;;;50.0;;
68319;SDS011;55168;51.120;17.024;2023-03-01T04:47:00;78.5;;;50.0;;
68319;SDS011;55168;51.120;17.024;2023-03-01T04:48:00;78.5;;;50.0;;
68319;SDS011;55168;51.120;17.024;2023-03-01T04:49:00;89.6;;;57.4;;
68319;SDS011;55168;51.120;17.024;2023-03-01T04:50:00;89.6;;;57.4;;
68319;SDS011;55168;51.120;17.024;2023-03-01T04:51:00;89.6;;;57.4;;
68319;SDS011;55168;51.120;17.024;2023-03-01T04:52:00;89.6;;;57.4;;
68319;SDS011;55168;51.120;17.024;2023-03-01T04:53:00;89.6;;;57.4;;
68319;SDS011;55168;51.120;17.024;2023-03-01T04:54:00;84.9;;;53.8;;
68319;SDS011;55168;51.120;17.024;2023-03-01T04:55:00;84.9;;;53.8;;
68319;SDS011;55168;51.120;17.024;2023-03-01T04:56:00;84.9;;;53.8;;
68319;SDS011;55168;51.120;17.024;2023-03-01T04:57:01;84.9;;;53.8;;
68319;SDS011;55168;51.120;17.024;2023-03-01T04:58:00;84.9;;;53.8;;
68319;SDS011;55168;51.120;17.024;2023-03-01T04:59:00;75.6;;;50.4;;
68319;SDS011;55168;51.120;17.024;2023-03-01T05:00:00;75.6;;;50.4;;
68319;SDS011;55168;51.120;17.024;2023-03-01T05:01:00;75.6;;;50.4;;
68319;SDS011;55168;51.120;17.024;2023-03-01T05:02:00;75.6;;;50.4;;
68319;SDS011;55168;51.120;17.024;2023-03-01T05:03:00;75.6;;;50.4;;
68319;SDS011;55168;51.120;17.024;2023-03-01T05:04:00;77.7;;;51.1;;
68319;SDS011;55168;51.120;17.024;2023-03-01T05:05:00;77.7;;;51.1;;
68319;SDS011;55168;51.120;17.024;2023-03-01T05:06:00;77.7;;;51.1;;
68319;SDS011;55168;51.120;17.024;2023-03-01T05:07:00;77.7;;;51.1;;
68319;SDS011;55168;51.120;17.024;2023-03-01T05:08:04;77.7;;;51.1;;
68319;SDS011;55168;51.120;17.024;2023-03-01T05:09:00;77.5;;;49.4;;
68319;SDS011;55168;51.120;17.024;2023-03-01T05:10:00;77.5;;;49.4;;
68319;SDS011;55168;51.120;17.024;2023-03-01T05:11:00;77.5;;;49.4;;
68319;SDS011;55168;51.120;17.024;2023-03-01T05:12:00;77.5;;;49.4;;
68319;SDS011;55168;51.120;17.024;2023-03-01T05:13:01;77.5;;;49.4;;
68319;SDS011;55168;51.120;17.024;2023-03-01T05:14:00;75.4;;;48.3;;
68319;SDS011;55168;51.120;17.024;2023-03-01T05:15:00;75.4;;;48.3;;
68319;SDS011;55168;51.120;17.024;2023-03-01T05:16:01;75.4;;;48.3;;
68319;SDS011;55168;51.120;17.024;2023-03-01T05:17:00;75.4;;;48.3;;
68319;SDS011;55168;51.120;17.024;2023-03-01T05:18:00;75.4;;;48.3;;
68319;SDS011;55168;51.120;17.024;2023-03-01T05:19:00;73.0;;;48.8;;
68319;SDS011;55168;51.120;17.024;2023-03-01T05:20:00;73.0;;;48.8;;
68319;SDS011;55168;51.120;17.024;2023-03-01T05:21:03;73.0;;;48.8;;
68319;SDS011;55168;51.120;17.024;2023-03-01T05:22:00;73.0;;;48.8;;
68319;SDS011;55168;51.120;17.024;2023-03-01T05:23:00;73.0;;;48.8;;
68319;SDS011;55168;51.120;17.024;2023-03-01T05:24:00;75.3;;;48.6;;
68319;SDS011;55168;51.120;17.024;2023-03-01T05:25:00;75.3;;;48.6;;
68319;SDS011;55168;51.120;17.024;2023-03-01T05:26:01;75.3;;;48.6;;
68319;SDS011;55168;51.120;17.024;2023-03-01T05:27:01;75.3;;;48.6;;
68319;SDS011;55168;51.120;17.024;2023-03-01T05:28:01;75.3;;;48.6;;
68319;SDS011;55168;51.120;17.024;2023-03-01T05:29:00;82.1;;;52.8;;
68319;SDS011;55168;51.120;17.024;2023-03-01T05:30:00;82.1;;;52.8;;
68319;SDS011;55168;51.120;17.024;2023-03-01T05:31:00;82.1;;;52.8;;
68319;SDS011;55168;51.120;17.024;2023-03-01T05:32:01;82.1;;;52.8;;
68319;SDS011;55168;51.120;17.024;2023-03-01T05:33:01;82.1;;;52.8;;
68319;SDS011;55168;51.120;17.024;2023-03-01T05:34:00;85.6;;;55.0;;
68319;SDS011;55168;51.120;17.024;2023-03-01T05:35:00;85.6;;;55.0;;
68319;SDS011;55168;51.120;17.024;2023-03-01T05:36:00;85.6;;;55.0;;
68319;SDS011;55168;51.120;17.024;2023-03-01T05:37:00;85.6;;;55.0;;
68319;SDS011;55168;51.120;17.024;2023-03-01T05:38:00;85.6;;;55.0;;
68319;SDS011;55168;51.120;17.024;2023-03-01T05:39:00;81.8;;;52.2;;
68319;SDS011;55168;51.120;17.024;2023-03-01T05:40:00;81.8;;;52.2;;
68319;SDS011;55168;51.120;17.024;2023-03-01T05:41:00;81.8;;;52.2;;
68319;SDS011;55168;51.120;17.024;2023-03-01T05:42:01;81.8;;;52.2;;
68319;SDS011;55168;51.120;17.024;2023-03-01T05:43:00;81.8;;;52.2;;
68319;SDS011;55168;51.120;17.024;2023-03-01T05:44:00;81.5;;;51.6;;
68319;SDS011;55168;51.120;17.024;2023-03-01T05:45:00;81.5;;;51.6;;
68319;SDS011;55168;51.120;17.024;2023-03-01T05:46:00;81.5;;;51.6;;
68319;SDS011;55168;51.120;17.024;2023-03-01T05:47:00;81.5;;;51.6;;
68319;SDS011;55168;51.120;17.024;2023-03-01T05:48:00;81.5;;;51.6;;
68319;SDS011;55168;51.120;17.024;2023-03-01T05:49:00;82.2;;;53.0;;
68319;SDS011;55168;51.120;17.024;2023-03-01T05:50:00;82.2;;;53.0;;
68319;SDS011;55168;51.120;17.024;2023-03-01T05:51:00;82.2;;;53.0;;
68319;SDS011;55168;51.120;17.024;2023-03-01T05:52:00;82.2;;;53.0;;
68319;SDS011;55168;51.120;17.024;2023-03-01T05:53:03;82.2;;;53.0;;
68319;SDS011;55168;51.120;17.024;2023-03-01T05:54:00;84.6;;;53.1;;
68319;SDS011;55168;51.120;17.024;2023-03-01T05:55:00;84.6;;;53.1;;
68319;SDS011;55168;51.120;17.024;2023-03-01T05:56:03;84.6;;;53.1;;
68319;SDS011;55168;51.120;17.024;2023-03-01T05:57:00;84.6;;;53.1;;
68319;SDS011;55168;51.120;17.024;2023-03-01T05:58:01;84.6;;;53.1;;
68319;SDS011;55168;51.120;17.024;2023-03-01T05:59:01;86.9;;;53.1;;
68319;SDS011;55168;51.120;17.024;2023-03-01T06:00:00;86.9;;;53.1;;
68319;SDS011;55168;51.120;17.024;2023-03-01T06:01:00;86.9;;;53.1;;